createdAt,value
2023-01-09T00:02:13.634Z,13.90
2023-01-09T00:04:45.829Z,13.57
2023-01-09T00:07:16.455Z,14.07
2023-01-09T00:09:46.928Z,12.25
2023-01-09T00:12:20.466Z,13.83
2023-01-09T00:14:50.967Z,13.70
2023-01-09T00:17:21.384Z,13.50
2023-01-09T00:19:52.215Z,15.53
2023-01-09T00:22:22.724Z,13.07
2023-01-09T00:24:54.206Z,14.50
2023-01-09T00:27:24.756Z,14.27
2023-01-09T00:29:57.032Z,13.00
2023-01-09T00:32:28.699Z,14.70
2023-01-09T00:34:59.256Z,17.23
2023-01-09T00:37:29.792Z,14.67
2023-01-09T00:40:00.322Z,14.83
2023-01-09T00:42:36.663Z,14.17
2023-01-09T00:45:13.757Z,15.20
2023-01-09T00:47:47.820Z,15.53
2023-01-09T00:50:23.313Z,14.83
2023-01-09T00:52:56.305Z,14.40
2023-01-09T00:55:28.522Z,15.20
2023-01-09T00:57:59.434Z,16.77
2023-01-09T01:00:30.382Z,15.23
2023-01-09T01:03:01.814Z,15.37
2023-01-09T01:05:49.349Z,15.13
2023-01-09T01:08:21.352Z,14.57
2023-01-09T01:10:52.040Z,13.67
2023-01-09T01:13:27.838Z,16.23
2023-01-09T01:16:01.410Z,16.10
2023-01-09T01:18:32.105Z,17.83
2023-01-09T01:21:04.919Z,17.60
2023-01-09T01:23:38.434Z,16.30
2023-01-09T01:26:11.933Z,15.13
2023-01-09T01:28:43.444Z,16.87
2023-01-09T01:31:19.148Z,19.10
2023-01-09T01:33:50.085Z,16.57
2023-01-09T01:36:20.703Z,17.00
2023-01-09T01:38:52.692Z,15.23
2023-01-09T01:41:32.500Z,15.80
2023-01-09T01:44:08.842Z,18.17
2023-01-09T01:46:39.510Z,16.77
2023-01-09T01:49:14.629Z,17.77
2023-01-09T01:51:48.062Z,16.20
2023-01-09T01:54:21.615Z,18.53
2023-01-09T01:56:56.993Z,17.70
2023-01-09T01:59:30.550Z,18.07
2023-01-09T02:02:02.790Z,17.30
2023-01-09T02:04:40.360Z,17.43
2023-01-09T02:07:11.438Z,16.93
2023-01-09T02:09:45.591Z,18.03
2023-01-09T02:12:27.780Z,17.60
2023-01-09T02:15:11.905Z,18.80
2023-01-09T02:18:00.477Z,17.07
2023-01-09T02:20:47.188Z,17.60
2023-01-09T02:23:49.993Z,17.65
2023-01-09T02:26:32.515Z,17.70
2023-01-09T02:29:34.754Z,16.13
2023-01-09T02:32:08.293Z,20.67
2023-01-09T02:34:44.821Z,17.60
2023-01-09T02:37:21.487Z,19.60
2023-01-09T02:40:04.424Z,17.73
2023-01-09T02:42:40.807Z,19.23
2023-01-09T02:45:11.712Z,19.40
2023-01-09T02:47:47.755Z,19.50
2023-01-09T02:50:24.611Z,18.70
2023-01-09T02:53:09.814Z,19.73
2023-01-09T02:55:55.739Z,19.77
2023-01-09T02:58:35.079Z,19.37
2023-01-09T03:01:24.163Z,21.15
2023-01-09T03:04:13.496Z,19.63
2023-01-09T03:06:47.377Z,22.00
2023-01-09T03:09:23.659Z,19.50
2023-01-09T03:12:03.827Z,20.23
2023-01-09T03:14:37.258Z,20.03
2023-01-09T03:17:13.721Z,22.37
2023-01-09T03:19:46.456Z,17.63
2023-01-09T03:22:19.866Z,19.87
2023-01-09T03:24:49.673Z,21.10
2023-01-09T03:27:22.260Z,19.70
2023-01-09T03:29:53.433Z,21.30
2023-01-09T03:32:27.100Z,22.13
2023-01-09T03:34:57.580Z,20.70
2023-01-09T03:37:28.005Z,20.53
2023-01-09T03:39:58.564Z,20.55
2023-01-09T03:42:33.457Z,21.20
2023-01-09T03:45:05.632Z,21.03
2023-01-09T03:47:36.318Z,20.30
2023-01-09T03:50:10.323Z,19.27
2023-01-09T03:52:42.837Z,20.47
2023-01-09T03:55:16.039Z,22.37
2023-01-09T03:57:49.727Z,20.43
2023-01-09T04:00:21.552Z,20.20
2023-01-09T04:02:52.068Z,19.00
2023-01-09T04:05:24.418Z,20.30
2023-01-09T04:07:58.154Z,20.07
2023-01-09T04:10:29.036Z,20.27
2023-01-09T04:12:59.576Z,19.60
2023-01-09T04:15:31.407Z,19.73
2023-01-09T04:18:03.837Z,19.13
2023-01-09T04:20:35.032Z,18.63
2023-01-09T04:23:05.558Z,19.00
2023-01-09T04:25:36.220Z,21.07
2023-01-09T04:28:06.876Z,19.20
2023-01-09T04:30:37.445Z,19.30
2023-01-09T04:33:10.780Z,19.57
2023-01-09T04:35:41.465Z,19.17
2023-01-09T04:38:11.980Z,18.43
2023-01-09T04:40:42.461Z,20.43
2023-01-09T04:43:14.604Z,19.80
2023-01-09T04:45:45.276Z,19.67
2023-01-09T04:48:18.598Z,18.67
2023-01-09T04:50:49.223Z,19.53
2023-01-09T04:53:19.685Z,19.97
2023-01-09T04:55:50.154Z,19.80
2023-01-09T04:58:22.896Z,18.60
2023-01-09T05:00:53.354Z,18.43
2023-01-09T05:03:24.983Z,17.27
2023-01-09T05:05:58.026Z,18.33
2023-01-09T05:08:28.794Z,17.83
2023-01-09T05:11:00.605Z,20.05
2023-01-09T05:13:31.374Z,19.40
2023-01-09T05:16:02.771Z,19.23
2023-01-09T05:18:33.793Z,20.00
2023-01-09T05:21:04.814Z,20.40
2023-01-09T05:23:37.259Z,19.27
2023-01-09T05:26:07.856Z,21.80
2023-01-09T05:28:39.067Z,18.52
2023-01-09T05:31:12.604Z,20.00
2023-01-09T05:33:45.614Z,16.60
2023-01-09T05:36:17.763Z,20.15
2023-01-09T05:38:48.229Z,18.63
2023-01-09T05:41:18.876Z,19.83
2023-01-09T05:43:50.022Z,18.77
2023-01-09T05:46:20.677Z,18.33
2023-01-09T05:48:51.126Z,19.82
2023-01-09T05:51:21.592Z,21.07
2023-01-09T05:53:52.259Z,18.80
2023-01-09T05:56:22.981Z,18.73
2023-01-09T05:58:54.516Z,19.03
2023-01-09T06:01:24.974Z,20.48
2023-01-09T06:03:56.134Z,20.60
2023-01-09T06:06:26.668Z,21.00
2023-01-09T06:08:57.097Z,21.20
2023-01-09T06:11:28.191Z,20.23
2023-01-09T06:13:58.710Z,20.90
2023-01-09T06:16:29.203Z,23.60
2023-01-09T06:18:59.773Z,23.57
2023-01-09T06:21:30.634Z,22.35
2023-01-09T06:24:01.128Z,22.87
2023-01-09T06:26:33.465Z,23.80
2023-01-09T06:29:04.392Z,24.02
2023-01-09T06:31:37.821Z,23.80
2023-01-09T06:34:09.615Z,23.27
2023-01-09T06:36:43.087Z,24.50
2023-01-09T06:39:16.528Z,24.20
2023-01-09T06:41:48.469Z,23.37
2023-01-09T06:44:20.662Z,24.47
2023-01-09T06:46:52.766Z,25.07
2023-01-09T06:49:25.733Z,25.53
2023-01-09T06:51:59.116Z,25.10
2023-01-09T06:54:31.250Z,23.97
2023-01-09T06:57:03.370Z,24.82
2023-01-09T06:59:34.122Z,24.40
2023-01-09T07:02:05.216Z,24.07
2023-01-09T07:04:35.857Z,23.37
2023-01-09T07:07:06.761Z,25.60
2023-01-09T07:09:37.594Z,22.77
2023-01-09T07:12:08.299Z,26.73
2023-01-09T07:14:38.791Z,25.57
2023-01-09T07:17:12.681Z,29.03
2023-01-09T07:19:43.275Z,24.93
2023-01-09T07:22:13.929Z,23.73
2023-01-09T07:24:46.607Z,25.05
2023-01-09T07:27:17.471Z,24.80
2023-01-09T07:29:48.378Z,25.85
2023-01-09T07:32:18.983Z,26.70
2023-01-09T07:34:53.693Z,29.17
2023-01-09T07:37:24.281Z,25.20
2023-01-09T07:39:54.732Z,22.13
2023-01-09T07:42:26.681Z,24.43
2023-01-09T07:44:58.367Z,25.55
2023-01-09T07:47:29.025Z,28.40
2023-01-09T07:49:59.515Z,26.33
2023-01-09T07:52:31.004Z,28.47
2023-01-09T07:55:01.443Z,25.97
2023-01-09T07:57:32.174Z,24.70
2023-01-09T08:00:07.878Z,25.48
2023-01-09T08:02:40.065Z,23.50
2023-01-09T08:05:13.889Z,22.73
2023-01-09T08:07:46.064Z,24.87
2023-01-09T08:10:18.431Z,24.55
2023-01-09T08:12:50.602Z,24.90
2023-01-09T08:15:38.685Z,25.17
2023-01-09T08:18:09.142Z,25.93
2023-01-09T08:20:41.121Z,27.50
2023-01-09T08:23:11.765Z,25.87
2023-01-09T08:25:44.819Z,28.43
2023-01-09T08:28:18.767Z,23.85
2023-01-09T08:30:49.365Z,22.23
2023-01-09T08:33:24.215Z,22.00
2023-01-09T08:35:55.086Z,24.47
2023-01-09T08:38:28.790Z,22.93
2023-01-09T08:40:59.322Z,23.90
2023-01-09T08:43:48.928Z,22.77
2023-01-09T08:46:40.593Z,25.25
2023-01-09T08:49:15.998Z,23.70
2023-01-09T08:51:46.478Z,24.20
2023-01-09T08:54:16.916Z,20.32
2023-01-09T08:56:48.065Z,23.30
2023-01-09T08:59:20.205Z,27.37
2023-01-09T09:01:50.702Z,32.70
2023-01-09T09:04:22.395Z,26.23
2023-01-09T09:06:54.634Z,26.20
2023-01-09T09:09:26.124Z,22.13
2023-01-09T09:11:56.559Z,25.23
2023-01-09T09:14:45.524Z,24.07
2023-01-09T09:17:19.193Z,24.00
2023-01-09T09:19:49.931Z,23.60
2023-01-09T09:22:20.696Z,20.63
2023-01-09T09:24:54.154Z,22.50
2023-01-09T09:27:25.654Z,24.87
2023-01-09T09:29:59.046Z,20.83
2023-01-09T09:32:29.439Z,22.27
2023-01-09T09:34:59.984Z,19.65
2023-01-09T09:37:30.567Z,19.95
2023-01-09T09:40:13.358Z,16.77
2023-01-09T09:43:09.897Z,18.80
2023-01-09T09:45:59.989Z,16.97
2023-01-09T09:48:39.245Z,17.82
2023-01-09T09:51:28.241Z,17.17
2023-01-09T09:54:14.265Z,16.55
2023-01-09T09:56:54.579Z,14.30
2023-01-09T09:59:28.105Z,13.75
2023-01-09T10:02:07.875Z,14.45
2023-01-09T10:04:41.636Z,15.40
2023-01-09T10:07:24.181Z,15.70
2023-01-09T10:09:59.566Z,14.45
2023-01-09T10:12:34.491Z,17.25
2023-01-09T10:15:20.768Z,15.88
2023-01-09T10:17:57.397Z,15.35
2023-01-09T10:20:36.709Z,13.93
2023-01-09T10:23:21.968Z,14.53
2023-01-09T10:26:01.296Z,14.50
2023-01-09T10:28:43.405Z,14.07
2023-01-09T10:31:17.496Z,13.60
2023-01-09T10:33:57.592Z,12.37
2023-01-09T10:36:43.624Z,12.78
2023-01-09T10:39:21.818Z,10.93
2023-01-09T10:42:24.640Z,11.57
2023-01-09T10:45:16.464Z,14.33
2023-01-09T10:47:49.452Z,12.90
2023-01-09T10:50:29.503Z,12.23
2023-01-09T10:53:02.314Z,10.63
2023-01-09T10:55:39.771Z,9.70
2023-01-09T10:58:14.006Z,9.17
2023-01-09T11:00:45.050Z,9.83
2023-01-09T11:03:21.809Z,10.50
2023-01-09T11:05:54.528Z,9.60
2023-01-09T11:08:39.695Z,8.38
2023-01-09T11:11:12.717Z,8.73
2023-01-09T11:13:45.456Z,10.90
2023-01-09T11:16:21.996Z,9.15
2023-01-09T11:18:59.270Z,7.97
2023-01-09T11:21:36.185Z,9.68
2023-01-09T11:24:19.501Z,8.83
2023-01-09T11:26:53.647Z,7.40
2023-01-09T11:29:25.265Z,7.93
2023-01-09T11:31:59.737Z,7.45
2023-01-09T11:34:34.534Z,7.60
2023-01-09T11:37:15.835Z,7.45
2023-01-09T11:39:48.326Z,8.05
2023-01-09T11:42:42.420Z,6.90
2023-01-09T11:45:27.776Z,6.35
2023-01-09T11:47:59.150Z,6.12
2023-01-09T11:50:32.395Z,6.55
2023-01-09T11:53:20.578Z,9.33
2023-01-09T11:56:01.170Z,6.80
2023-01-09T11:58:35.376Z,6.10
2023-01-09T12:01:11.587Z,6.55
2023-01-09T12:04:15.050Z,6.05
2023-01-09T12:06:52.540Z,6.25
2023-01-09T12:09:54.175Z,6.70
2023-01-09T12:12:30.564Z,5.78
2023-01-09T12:15:25.408Z,6.60
2023-01-09T12:17:58.884Z,5.78
2023-01-09T12:20:44.362Z,5.00
2023-01-09T12:23:42.288Z,4.15
2023-01-09T12:26:37.075Z,4.00
2023-01-09T12:29:31.257Z,4.95
2023-01-09T12:32:25.113Z,4.53
2023-01-09T12:35:01.256Z,7.67
2023-01-09T12:37:43.391Z,4.28
2023-01-09T12:40:18.306Z,5.35
2023-01-09T12:43:03.805Z,5.90
2023-01-09T12:45:38.973Z,5.97
2023-01-09T12:48:12.649Z,6.17
2023-01-09T12:50:56.586Z,6.45
2023-01-09T12:53:30.052Z,4.37
2023-01-09T12:56:08.158Z,4.87
2023-01-09T12:58:47.534Z,4.80
2023-01-09T13:01:23.871Z,5.58
2023-01-09T13:03:57.453Z,4.55
2023-01-09T13:06:29.817Z,6.08
2023-01-09T13:09:15.710Z,4.55
2023-01-09T13:12:04.122Z,3.58
2023-01-09T13:14:46.737Z,6.55
2023-01-09T13:17:20.402Z,5.97
2023-01-09T13:19:51.257Z,6.40
2023-01-09T13:22:25.986Z,4.95
2023-01-09T13:25:10.625Z,4.62
2023-01-09T13:27:42.208Z,5.62
2023-01-09T13:30:22.484Z,9.78
2023-01-09T13:33:02.205Z,6.95
2023-01-09T13:35:36.658Z,6.22
2023-01-09T13:38:13.113Z,4.42
2023-01-09T13:40:46.470Z,6.03
2023-01-09T13:43:17.187Z,4.50
2023-01-09T13:45:52.873Z,3.72
2023-01-09T13:48:30.797Z,4.92
2023-01-09T13:51:39.364Z,5.03
2023-01-09T13:54:12.996Z,3.70
2023-01-09T13:57:18.855Z,3.90
2023-01-09T13:59:52.289Z,3.30
2023-01-09T14:02:48.216Z,3.02
2023-01-09T14:05:27.479Z,5.83
2023-01-09T14:08:09.137Z,3.45
2023-01-09T14:10:50.653Z,3.07
2023-01-09T14:13:26.966Z,4.83
2023-01-09T14:16:09.448Z,2.95
2023-01-09T14:18:44.737Z,5.70
2023-01-09T14:21:16.027Z,4.85
2023-01-09T14:24:05.335Z,6.45
2023-01-09T14:26:47.032Z,4.70
2023-01-09T14:29:40.674Z,3.37
2023-01-09T14:32:40.232Z,3.27
2023-01-09T14:35:10.313Z,3.72
2023-01-09T14:37:43.322Z,6.55
2023-01-09T14:40:25.057Z,5.03
2023-01-09T14:42:58.304Z,6.00
2023-01-09T14:45:30.663Z,4.03
2023-01-09T14:48:11.140Z,3.65
2023-01-09T14:50:57.661Z,8.70
2023-01-09T14:53:39.248Z,4.00
2023-01-09T14:56:15.698Z,3.80
2023-01-09T14:58:50.539Z,6.67
2023-01-09T15:01:23.944Z,4.42
2023-01-09T15:04:02.465Z,3.92
2023-01-09T15:06:36.505Z,3.70
2023-01-09T15:09:19.909Z,7.22
2023-01-09T15:11:54.286Z,5.35
2023-01-09T15:14:41.995Z,4.92
2023-01-09T15:17:28.290Z,9.33
2023-01-09T15:20:01.547Z,6.33
2023-01-09T15:22:39.245Z,4.05
2023-01-09T15:25:38.900Z,3.95
2023-01-09T15:28:26.806Z,4.72
2023-01-09T15:31:09.177Z,4.12
2023-01-09T15:33:47.948Z,4.67
2023-01-09T15:36:26.890Z,4.90
2023-01-09T15:38:59.292Z,4.90
2023-01-09T15:41:50.191Z,4.12
2023-01-09T15:44:24.644Z,4.42
2023-01-09T15:46:58.488Z,7.50
2023-01-09T15:49:30.661Z,8.85
2023-01-09T15:52:02.249Z,5.47
2023-01-09T15:54:37.136Z,7.97
2023-01-09T15:57:30.440Z,5.35
2023-01-09T16:00:24.076Z,5.80
2023-01-09T16:03:12.376Z,4.03
2023-01-09T16:05:52.647Z,4.08
2023-01-09T16:08:31.843Z,6.62
2023-01-09T16:11:10.973Z,7.53
2023-01-09T16:13:46.424Z,8.08
2023-01-09T16:16:28.996Z,5.80
2023-01-09T16:19:02.013Z,3.02
2023-01-09T16:21:35.745Z,4.65
2023-01-09T16:24:21.403Z,3.98
2023-01-09T16:26:58.094Z,3.77
2023-01-09T16:29:39.692Z,4.33
2023-01-09T16:32:13.635Z,2.72
2023-01-09T16:34:47.128Z,4.95
2023-01-09T16:37:20.836Z,2.83
2023-01-09T16:40:11.101Z,4.15
2023-01-09T16:43:07.341Z,2.75
2023-01-09T16:45:49.162Z,3.80
2023-01-09T16:48:22.108Z,4.78
2023-01-09T16:50:54.263Z,4.05
2023-01-09T16:53:28.412Z,5.97
2023-01-09T16:56:00.993Z,4.53
2023-01-09T16:58:34.353Z,3.37
2023-01-09T17:01:11.931Z,3.72
2023-01-09T17:03:44.222Z,4.53
2023-01-09T17:06:25.241Z,3.67
2023-01-09T17:08:55.863Z,3.65
2023-01-09T17:11:32.401Z,3.47
2023-01-09T17:14:08.263Z,3.60
2023-01-09T17:16:40.747Z,3.77
2023-01-09T17:19:19.733Z,3.77
2023-01-09T17:21:52.648Z,4.25
2023-01-09T17:24:42.269Z,7.20
2023-01-09T17:27:30.955Z,3.40
2023-01-09T17:30:05.624Z,5.78
2023-01-09T17:32:35.040Z,3.62
2023-01-09T17:35:08.127Z,4.00
2023-01-09T17:37:39.009Z,4.00
2023-01-09T17:40:21.952Z,5.37
2023-01-09T17:42:53.995Z,6.65
2023-01-09T17:45:26.769Z,6.95
2023-01-09T17:47:59.465Z,6.47
2023-01-09T17:50:33.675Z,10.03
2023-01-09T17:53:06.771Z,6.55
2023-01-09T17:55:37.321Z,5.70
2023-01-09T17:58:09.022Z,3.05
2023-01-09T18:00:41.175Z,3.00
2023-01-09T18:03:12.516Z,4.50
2023-01-09T18:05:43.197Z,3.02
2023-01-09T18:08:16.155Z,1.90
2023-01-09T18:10:48.373Z,3.93
2023-01-09T18:13:20.311Z,3.35
2023-01-09T18:15:51.705Z,4.08
2023-01-09T18:18:22.470Z,3.58
2023-01-09T18:20:54.167Z,2.87
2023-01-09T18:23:24.953Z,3.55
2023-01-09T18:25:59.015Z,3.40
2023-01-09T18:28:35.789Z,6.70
2023-01-09T18:31:06.174Z,3.67
2023-01-09T18:33:39.418Z,4.30
2023-01-09T18:36:12.749Z,5.30
2023-01-09T18:38:44.341Z,7.60
2023-01-09T18:41:14.885Z,5.55
2023-01-09T18:43:48.682Z,5.33
2023-01-09T18:46:21.258Z,4.08
2023-01-09T18:49:02.179Z,3.77
2023-01-09T18:51:36.802Z,6.42
2023-01-09T18:54:12.258Z,5.45
2023-01-09T18:56:42.893Z,5.42
2023-01-09T18:59:16.683Z,5.03
2023-01-09T19:01:47.270Z,3.42
2023-01-09T19:04:26.735Z,4.47
2023-01-09T19:06:58.871Z,6.20
2023-01-09T19:09:29.875Z,4.28
2023-01-09T19:12:00.366Z,4.12
2023-01-09T19:14:32.389Z,2.90
2023-01-09T19:17:06.681Z,3.33
2023-01-09T19:19:37.367Z,3.83
2023-01-09T19:22:08.201Z,4.53
2023-01-09T19:24:38.809Z,3.47
2023-01-09T19:27:09.464Z,3.30
2023-01-09T19:29:40.426Z,3.40
2023-01-09T19:32:13.485Z,5.60
2023-01-09T19:34:44.768Z,2.30
2023-01-09T19:37:17.844Z,3.53
2023-01-09T19:39:48.766Z,3.50
2023-01-09T19:42:21.980Z,4.22
2023-01-09T19:44:54.275Z,3.02
2023-01-09T19:47:24.861Z,4.10
2023-01-09T19:49:56.844Z,3.10
2023-01-09T19:52:29.823Z,4.55
2023-01-09T19:55:00.721Z,3.98
2023-01-09T19:57:38.524Z,4.05
2023-01-09T20:00:07.726Z,4.72
2023-01-09T20:02:40.246Z,3.50
2023-01-09T20:05:14.058Z,4.12
2023-01-09T20:07:47.779Z,4.17
2023-01-09T20:10:19.609Z,4.12
2023-01-09T20:12:54.352Z,3.10
2023-01-09T20:15:25.940Z,4.05
2023-01-09T20:17:57.656Z,3.55
2023-01-09T20:20:29.972Z,3.25
2023-01-09T20:23:00.492Z,3.65
2023-01-09T20:25:32.294Z,3.55
2023-01-09T20:28:02.982Z,4.78
2023-01-09T20:30:35.381Z,4.42
2023-01-09T20:33:06.058Z,4.58
2023-01-09T20:35:36.720Z,4.25
2023-01-09T20:38:09.914Z,3.90
2023-01-09T20:40:45.426Z,5.53
2023-01-09T20:43:18.364Z,3.85
2023-01-09T20:45:49.244Z,3.17
2023-01-09T20:48:20.348Z,4.50
2023-01-09T20:50:53.229Z,4.15
2023-01-09T20:53:24.268Z,2.87
2023-01-09T20:55:59.502Z,3.33
2023-01-09T20:58:30.022Z,2.80
2023-01-09T21:01:08.790Z,3.22
2023-01-09T21:03:51.022Z,4.90
2023-01-09T21:06:26.919Z,3.30
2023-01-09T21:08:57.492Z,2.72
2023-01-09T21:11:30.330Z,4.37
2023-01-09T21:14:01.353Z,4.67
2023-01-09T21:16:33.922Z,3.65
2023-01-09T21:19:05.368Z,3.33
2023-01-09T21:21:37.555Z,4.17
2023-01-09T21:24:11.608Z,4.58
2023-01-09T21:26:42.175Z,2.85
2023-01-09T21:29:14.819Z,2.60
2023-01-09T21:31:46.778Z,2.40
2023-01-09T21:34:20.356Z,4.70
2023-01-09T21:36:52.789Z,3.85
2023-01-09T21:39:24.112Z,4.67
2023-01-09T21:42:12.688Z,5.20
2023-01-09T21:45:02.831Z,2.95
2023-01-09T21:47:33.691Z,3.47
2023-01-09T21:50:07.666Z,2.50
2023-01-09T21:52:38.237Z,3.50
2023-01-09T21:55:10.051Z,3.35
2023-01-09T21:57:41.896Z,2.72
2023-01-09T22:00:14.701Z,2.60
2023-01-09T22:02:47.935Z,3.90
2023-01-09T22:05:19.428Z,3.75
2023-01-09T22:07:54.047Z,2.05
2023-01-09T22:10:31.364Z,2.30
2023-01-09T22:13:17.979Z,3.67
2023-01-09T22:15:49.903Z,3.55
2023-01-09T22:18:20.555Z,3.83
2023-01-09T22:20:50.962Z,2.72
2023-01-09T22:23:23.139Z,2.50
2023-01-09T22:25:58.393Z,3.83
2023-01-09T22:28:30.940Z,3.50
2023-01-09T22:31:01.381Z,3.10
2023-01-09T22:33:36.409Z,2.92
2023-01-09T22:36:12.951Z,3.27
2023-01-09T22:38:47.103Z,3.40
2023-01-09T22:41:18.538Z,2.83
2023-01-09T22:43:50.348Z,2.58
2023-01-09T22:46:21.971Z,2.50
2023-01-09T22:48:54.886Z,2.43
2023-01-09T22:51:26.086Z,2.37
2023-01-09T22:53:56.718Z,4.30
2023-01-09T22:56:29.026Z,3.92
2023-01-09T22:59:01.956Z,3.05
2023-01-09T23:01:33.539Z,3.05
2023-01-09T23:04:05.223Z,3.30
2023-01-09T23:06:39.537Z,2.92
2023-01-09T23:09:11.763Z,3.45
2023-01-09T23:12:01.253Z,3.42
2023-01-09T23:14:35.098Z,6.28
2023-01-09T23:17:08.662Z,3.37
2023-01-09T23:19:42.333Z,4.67
2023-01-09T23:22:13.190Z,3.22
2023-01-09T23:24:45.609Z,3.42
2023-01-09T23:27:16.325Z,4.28
2023-01-09T23:29:51.240Z,3.17
2023-01-09T23:32:27.950Z,3.20
2023-01-09T23:34:59.707Z,3.62
2023-01-09T23:37:31.724Z,3.25
2023-01-09T23:40:04.750Z,3.70
2023-01-09T23:42:54.691Z,3.15
2023-01-09T23:45:26.062Z,3.92
2023-01-09T23:47:57.319Z,4.08
2023-01-09T23:50:29.334Z,3.30
2023-01-09T23:53:00.348Z,4.55
2023-01-09T23:55:32.396Z,3.50
2023-01-09T23:58:02.855Z,3.52
